sensor_id;sensor_type;location;lat;lon;timestamp;P1;durP1;ratioP1;P2;durP2;ratioP2
35909;SDS011;22004;49.120;-0.200;2023-04-25T00:00:47;15.40;;;5.13;;
35909;SDS011;22004;49.120;-0.200;2023-04-25T00:03:12;12.13;;;4.05;;
35909;SDS011;22004;49.120;-0.200;2023-04-25T00:05:38;14.05;;;4.15;;
35909;SDS011;22004;49.120;-0.200;2023-04-25T00:08:04;15.02;;;4.78;;
35909;SDS011;22004;49.120;-0.200;2023-04-25T00:10:29;14.00;;;4.60;;
35909;SDS011;22004;49.120;-0.200;2023-04-25T00:12:55;12.20;;;4.57;;
35909;SDS011;22004;49.120;-0.200;2023-04-25T00:15:20;10.50;;;3.85;;
35909;SDS011;22004;49.120;-0.200;2023-04-25T00:17:46;15.52;;;4.38;;
35909;SDS011;22004;49.120;-0.200;2023-04-25T00:20:12;16.48;;;4.18;;
35909;SDS011;22004;49.120;-0.200;2023-04-25T00:22:37;14.77;;;4.70;;
35909;SDS011;22004;49.120;-0.200;2023-04-25T00:25:05;10.48;;;3.75;;
35909;SDS011;22004;49.120;-0.200;2023-04-25T00:27:31;21.95;;;5.40;;
35909;SDS011;22004;49.120;-0.200;2023-04-25T00:29:57;14.57;;;4.43;;
35909;SDS011;22004;49.120;-0.200;2023-04-25T00:32:22;14.30;;;4.55;;
35909;SDS011;22004;49.120;-0.200;2023-04-25T00:34:47;11.05;;;4.22;;
35909;SDS011;22004;49.120;-0.200;2023-04-25T00:37:13;11.82;;;4.07;;
35909;SDS011;22004;49.120;-0.200;2023-04-25T00:39:38;10.68;;;3.80;;
35909;SDS011;22004;49.120;-0.200;2023-04-25T00:42:03;15.55;;;4.20;;
35909;SDS011;22004;49.120;-0.200;2023-04-25T00:44:30;15.00;;;4.53;;
35909;SDS011;22004;49.120;-0.200;2023-04-25T00:46:57;13.95;;;4.22;;
35909;SDS011;22004;49.120;-0.200;2023-04-25T00:49:22;17.30;;;4.35;;
35909;SDS011;22004;49.120;-0.200;2023-04-25T00:51:48;12.30;;;3.80;;
35909;SDS011;22004;49.120;-0.200;2023-04-25T00:54:13;16.88;;;4.32;;
35909;SDS011;22004;49.120;-0.200;2023-04-25T00:56:39;15.00;;;3.88;;
35909;SDS011;22004;49.120;-0.200;2023-04-25T00:59:05;18.83;;;4.28;;
35909;SDS011;22004;49.120;-0.200;2023-04-25T01:01:30;11.10;;;3.70;;
35909;SDS011;22004;49.120;-0.200;2023-04-25T01:03:56;14.57;;;4.20;;
35909;SDS011;22004;49.120;-0.200;2023-04-25T01:06:23;14.57;;;4.20;;
35909;SDS011;22004;49.120;-0.200;2023-04-25T01:08:49;10.93;;;3.80;;
35909;SDS011;22004;49.120;-0.200;2023-04-25T01:11:15;12.98;;;4.15;;
35909;SDS011;22004;49.120;-0.200;2023-04-25T01:13:41;15.15;;;4.43;;
35909;SDS011;22004;49.120;-0.200;2023-04-25T01:16:06;16.35;;;4.63;;
35909;SDS011;22004;49.120;-0.200;2023-04-25T01:18:32;15.00;;;4.50;;
35909;SDS011;22004;49.120;-0.200;2023-04-25T01:21:02;15.82;;;5.07;;
35909;SDS011;22004;49.120;-0.200;2023-04-25T01:23:32;14.60;;;3.95;;
35909;SDS011;22004;49.120;-0.200;2023-04-25T01:25:58;11.45;;;3.80;;
35909;SDS011;22004;49.120;-0.200;2023-04-25T01:28:24;11.85;;;4.10;;
35909;SDS011;22004;49.120;-0.200;2023-04-25T01:30:50;13.70;;;3.50;;
35909;SDS011;22004;49.120;-0.200;2023-04-25T01:33:16;13.10;;;4.00;;
35909;SDS011;22004;49.120;-0.200;2023-04-25T01:35:43;16.77;;;3.97;;
35909;SDS011;22004;49.120;-0.200;2023-04-25T01:38:08;12.93;;;3.55;;
35909;SDS011;22004;49.120;-0.200;2023-04-25T01:40:35;16.02;;;3.78;;
35909;SDS011;22004;49.120;-0.200;2023-04-25T01:43:03;11.73;;;3.60;;
35909;SDS011;22004;49.120;-0.200;2023-04-25T01:45:29;13.20;;;3.47;;
35909;SDS011;22004;49.120;-0.200;2023-04-25T01:47:54;11.20;;;3.80;;
35909;SDS011;22004;49.120;-0.200;2023-04-25T01:50:24;12.23;;;3.70;;
35909;SDS011;22004;49.120;-0.200;2023-04-25T01:52:49;15.25;;;3.72;;
35909;SDS011;22004;49.120;-0.200;2023-04-25T01:55:15;12.43;;;3.53;;
35909;SDS011;22004;49.120;-0.200;2023-04-25T01:57:40;11.18;;;3.50;;
35909;SDS011;22004;49.120;-0.200;2023-04-25T02:00:06;11.20;;;3.85;;
35909;SDS011;22004;49.120;-0.200;2023-04-25T02:02:34;12.23;;;3.35;;
35909;SDS011;22004;49.120;-0.200;2023-04-25T02:04:59;14.10;;;3.58;;
35909;SDS011;22004;49.120;-0.200;2023-04-25T02:07:25;11.10;;;3.67;;
35909;SDS011;22004;49.120;-0.200;2023-04-25T02:09:51;14.63;;;3.50;;
35909;SDS011;22004;49.120;-0.200;2023-04-25T02:12:16;10.80;;;3.13;;
35909;SDS011;22004;49.120;-0.200;2023-04-25T02:14:42;14.23;;;3.78;;
35909;SDS011;22004;49.120;-0.200;2023-04-25T02:17:07;11.00;;;3.20;;
35909;SDS011;22004;49.120;-0.200;2023-04-25T02:19:33;8.88;;;3.17;;
35909;SDS011;22004;49.120;-0.200;2023-04-25T02:21:58;14.68;;;3.58;;
35909;SDS011;22004;49.120;-0.200;2023-04-25T02:24:24;12.93;;;3.20;;
35909;SDS011;22004;49.120;-0.200;2023-04-25T02:26:49;11.43;;;3.28;;
35909;SDS011;22004;49.120;-0.200;2023-04-25T02:29:15;11.40;;;3.60;;
35909;SDS011;22004;49.120;-0.200;2023-04-25T02:31:41;10.63;;;3.17;;
35909;SDS011;22004;49.120;-0.200;2023-04-25T02:34:07;10.70;;;3.67;;
35909;SDS011;22004;49.120;-0.200;2023-04-25T02:36:32;12.68;;;3.72;;
35909;SDS011;22004;49.120;-0.200;2023-04-25T02:38:59;16.13;;;3.35;;
35909;SDS011;22004;49.120;-0.200;2023-04-25T02:41:25;10.30;;;3.30;;
35909;SDS011;22004;49.120;-0.200;2023-04-25T02:43:51;8.55;;;3.13;;
35909;SDS011;22004;49.120;-0.200;2023-04-25T02:46:16;13.48;;;3.97;;
35909;SDS011;22004;49.120;-0.200;2023-04-25T02:48:41;11.52;;;2.90;;
35909;SDS011;22004;49.120;-0.200;2023-04-25T02:51:07;13.07;;;3.22;;
35909;SDS011;22004;49.120;-0.200;2023-04-25T02:53:32;9.30;;;3.33;;
35909;SDS011;22004;49.120;-0.200;2023-04-25T02:55:57;10.13;;;2.90;;
35909;SDS011;22004;49.120;-0.200;2023-04-25T02:58:24;14.00;;;3.65;;
35909;SDS011;22004;49.120;-0.200;2023-04-25T03:00:49;13.38;;;3.50;;
35909;SDS011;22004;49.120;-0.200;2023-04-25T03:03:15;9.23;;;3.00;;
35909;SDS011;22004;49.120;-0.200;2023-04-25T03:05:42;14.02;;;3.55;;
35909;SDS011;22004;49.120;-0.200;2023-04-25T03:08:08;8.65;;;2.80;;
35909;SDS011;22004;49.120;-0.200;2023-04-25T03:10:34;13.68;;;3.45;;
35909;SDS011;22004;49.120;-0.200;2023-04-25T03:12:59;16.77;;;3.28;;
35909;SDS011;22004;49.120;-0.200;2023-04-25T03:15:24;9.13;;;2.83;;
35909;SDS011;22004;49.120;-0.200;2023-04-25T03:17:50;11.68;;;3.05;;
35909;SDS011;22004;49.120;-0.200;2023-04-25T03:20:15;13.13;;;3.45;;
35909;SDS011;22004;49.120;-0.200;2023-04-25T03:22:41;13.15;;;3.05;;
35909;SDS011;22004;49.120;-0.200;2023-04-25T03:25:06;22.95;;;3.90;;
35909;SDS011;22004;49.120;-0.200;2023-04-25T03:27:32;12.05;;;3.25;;
35909;SDS011;22004;49.120;-0.200;2023-04-25T03:29:58;12.15;;;2.85;;
35909;SDS011;22004;49.120;-0.200;2023-04-25T03:32:23;15.20;;;3.47;;
35909;SDS011;22004;49.120;-0.200;2023-04-25T03:34:48;12.05;;;3.28;;
35909;SDS011;22004;49.120;-0.200;2023-04-25T03:37:14;9.70;;;3.50;;
35909;SDS011;22004;49.120;-0.200;2023-04-25T03:39:39;11.90;;;3.72;;
35909;SDS011;22004;49.120;-0.200;2023-04-25T03:42:05;11.13;;;2.95;;
35909;SDS011;22004;49.120;-0.200;2023-04-25T03:44:30;7.47;;;2.78;;
35909;SDS011;22004;49.120;-0.200;2023-04-25T03:46:55;11.02;;;4.43;;
35909;SDS011;22004;49.120;-0.200;2023-04-25T03:49:20;13.77;;;2.80;;
35909;SDS011;22004;49.120;-0.200;2023-04-25T03:51:46;11.70;;;3.67;;
35909;SDS011;22004;49.120;-0.200;2023-04-25T03:54:11;11.20;;;3.10;;
35909;SDS011;22004;49.120;-0.200;2023-04-25T03:56:37;9.98;;;3.20;;
35909;SDS011;22004;49.120;-0.200;2023-04-25T03:59:02;14.40;;;3.75;;
35909;SDS011;22004;49.120;-0.200;2023-04-25T04:01:27;9.45;;;3.00;;
35909;SDS011;22004;49.120;-0.200;2023-04-25T04:03:53;12.65;;;3.00;;
35909;SDS011;22004;49.120;-0.200;2023-04-25T04:06:18;10.35;;;3.25;;
35909;SDS011;22004;49.120;-0.200;2023-04-25T04:08:45;12.27;;;3.30;;
35909;SDS011;22004;49.120;-0.200;2023-04-25T04:11:11;9.43;;;3.00;;
35909;SDS011;22004;49.120;-0.200;2023-04-25T04:13:36;11.85;;;3.22;;
35909;SDS011;22004;49.120;-0.200;2023-04-25T04:16:02;11.43;;;3.90;;
35909;SDS011;22004;49.120;-0.200;2023-04-25T04:18:29;10.10;;;3.20;;
35909;SDS011;22004;49.120;-0.200;2023-04-25T04:20:54;11.18;;;3.63;;
35909;SDS011;22004;49.120;-0.200;2023-04-25T04:23:20;11.55;;;3.00;;
35909;SDS011;22004;49.120;-0.200;2023-04-25T04:25:45;14.48;;;3.47;;
35909;SDS011;22004;49.120;-0.200;2023-04-25T04:28:11;12.35;;;3.58;;
35909;SDS011;22004;49.120;-0.200;2023-04-25T04:30:38;10.48;;;3.40;;
35909;SDS011;22004;49.120;-0.200;2023-04-25T04:33:04;9.77;;;3.13;;
35909;SDS011;22004;49.120;-0.200;2023-04-25T04:35:29;10.55;;;3.20;;
35909;SDS011;22004;49.120;-0.200;2023-04-25T04:37:55;8.25;;;3.33;;
35909;SDS011;22004;49.120;-0.200;2023-04-25T04:40:21;10.77;;;2.88;;
35909;SDS011;22004;49.120;-0.200;2023-04-25T04:42:46;9.27;;;3.30;;
35909;SDS011;22004;49.120;-0.200;2023-04-25T04:45:13;11.65;;;2.92;;
35909;SDS011;22004;49.120;-0.200;2023-04-25T04:47:39;10.20;;;3.80;;
35909;SDS011;22004;49.120;-0.200;2023-04-25T04:50:07;9.20;;;3.00;;
35909;SDS011;22004;49.120;-0.200;2023-04-25T04:52:34;13.27;;;3.22;;
35909;SDS011;22004;49.120;-0.200;2023-04-25T04:55:00;9.05;;;2.90;;
35909;SDS011;22004;49.120;-0.200;2023-04-25T04:57:26;11.27;;;3.20;;
35909;SDS011;22004;49.120;-0.200;2023-04-25T04:59:52;10.70;;;2.75;;
35909;SDS011;22004;49.120;-0.200;2023-04-25T05:02:18;7.55;;;2.95;;
35909;SDS011;22004;49.120;-0.200;2023-04-25T05:04:43;8.05;;;3.00;;
35909;SDS011;22004;49.120;-0.200;2023-04-25T05:07:09;11.02;;;3.10;;
35909;SDS011;22004;49.120;-0.200;2023-04-25T05:09:34;10.40;;;2.58;;
35909;SDS011;22004;49.120;-0.200;2023-04-25T05:12:00;13.93;;;3.90;;
35909;SDS011;22004;49.120;-0.200;2023-04-25T05:14:26;11.15;;;3.20;;
35909;SDS011;22004;49.120;-0.200;2023-04-25T05:16:51;9.93;;;2.70;;
35909;SDS011;22004;49.120;-0.200;2023-04-25T05:19:16;9.98;;;2.85;;
35909;SDS011;22004;49.120;-0.200;2023-04-25T05:21:42;7.32;;;2.47;;
35909;SDS011;22004;49.120;-0.200;2023-04-25T05:24:08;6.63;;;2.53;;
35909;SDS011;22004;49.120;-0.200;2023-04-25T05:26:33;11.75;;;3.08;;
35909;SDS011;22004;49.120;-0.200;2023-04-25T05:28:59;13.55;;;3.10;;
35909;SDS011;22004;49.120;-0.200;2023-04-25T05:31:25;13.13;;;2.90;;
35909;SDS011;22004;49.120;-0.200;2023-04-25T05:33:50;8.57;;;3.03;;
35909;SDS011;22004;49.120;-0.200;2023-04-25T05:36:16;12.10;;;3.22;;
35909;SDS011;22004;49.120;-0.200;2023-04-25T05:38:43;10.93;;;2.92;;
35909;SDS011;22004;49.120;-0.200;2023-04-25T05:41:08;10.95;;;3.17;;
35909;SDS011;22004;49.120;-0.200;2023-04-25T05:43:33;10.75;;;2.65;;
35909;SDS011;22004;49.120;-0.200;2023-04-25T05:45:59;10.00;;;2.75;;
35909;SDS011;22004;49.120;-0.200;2023-04-25T05:48:24;7.32;;;2.67;;
35909;SDS011;22004;49.120;-0.200;2023-04-25T05:50:50;8.50;;;3.00;;
35909;SDS011;22004;49.120;-0.200;2023-04-25T05:53:16;8.15;;;2.58;;
35909;SDS011;22004;49.120;-0.200;2023-04-25T05:55:42;9.95;;;2.42;;
35909;SDS011;22004;49.120;-0.200;2023-04-25T05:58:07;6.93;;;2.60;;
35909;SDS011;22004;49.120;-0.200;2023-04-25T06:00:33;7.80;;;2.80;;
35909;SDS011;22004;49.120;-0.200;2023-04-25T06:02:58;8.35;;;2.78;;
35909;SDS011;22004;49.120;-0.200;2023-04-25T06:05:24;6.63;;;2.53;;
35909;SDS011;22004;49.120;-0.200;2023-04-25T06:07:50;7.22;;;2.45;;
35909;SDS011;22004;49.120;-0.200;2023-04-25T06:10:15;10.35;;;2.50;;
35909;SDS011;22004;49.120;-0.200;2023-04-25T06:12:40;6.10;;;2.40;;
35909;SDS011;22004;49.120;-0.200;2023-04-25T06:15:06;6.70;;;2.30;;
35909;SDS011;22004;49.120;-0.200;2023-04-25T06:17:32;9.15;;;2.95;;
35909;SDS011;22004;49.120;-0.200;2023-04-25T06:19:58;7.40;;;2.47;;
35909;SDS011;22004;49.120;-0.200;2023-04-25T06:22:23;8.50;;;2.65;;
35909;SDS011;22004;49.120;-0.200;2023-04-25T06:24:48;8.32;;;2.50;;
35909;SDS011;22004;49.120;-0.200;2023-04-25T06:27:14;10.70;;;2.78;;
35909;SDS011;22004;49.120;-0.200;2023-04-25T06:29:39;17.45;;;3.17;;
35909;SDS011;22004;49.120;-0.200;2023-04-25T06:32:05;11.48;;;2.78;;
35909;SDS011;22004;49.120;-0.200;2023-04-25T06:34:30;9.50;;;2.60;;
35909;SDS011;22004;49.120;-0.200;2023-04-25T06:36:55;12.23;;;3.35;;
35909;SDS011;22004;49.120;-0.200;2023-04-25T06:39:21;10.15;;;2.92;;
35909;SDS011;22004;49.120;-0.200;2023-04-25T06:41:48;12.23;;;2.83;;
35909;SDS011;22004;49.120;-0.200;2023-04-25T06:44:14;8.90;;;2.80;;
35909;SDS011;22004;49.120;-0.200;2023-04-25T06:46:40;11.73;;;2.88;;
35909;SDS011;22004;49.120;-0.200;2023-04-25T06:49:05;9.25;;;2.95;;
35909;SDS011;22004;49.120;-0.200;2023-04-25T06:51:31;7.05;;;2.65;;
35909;SDS011;22004;49.120;-0.200;2023-04-25T06:53:56;7.43;;;2.28;;
35909;SDS011;22004;49.120;-0.200;2023-04-25T06:56:22;10.10;;;2.85;;
35909;SDS011;22004;49.120;-0.200;2023-04-25T06:58:48;9.57;;;2.95;;
35909;SDS011;22004;49.120;-0.200;2023-04-25T07:01:13;9.43;;;2.58;;
35909;SDS011;22004;49.120;-0.200;2023-04-25T07:03:39;8.40;;;2.90;;
35909;SDS011;22004;49.120;-0.200;2023-04-25T07:06:04;12.20;;;2.83;;
35909;SDS011;22004;49.120;-0.200;2023-04-25T07:08:30;15.35;;;3.28;;
35909;SDS011;22004;49.120;-0.200;2023-04-25T07:10:55;18.20;;;3.95;;
35909;SDS011;22004;49.120;-0.200;2023-04-25T07:13:20;12.60;;;3.85;;
35909;SDS011;22004;49.120;-0.200;2023-04-25T07:15:46;12.68;;;3.47;;
35909;SDS011;22004;49.120;-0.200;2023-04-25T07:18:13;15.98;;;3.35;;
35909;SDS011;22004;49.120;-0.200;2023-04-25T07:20:38;14.68;;;3.20;;
35909;SDS011;22004;49.120;-0.200;2023-04-25T07:23:04;12.02;;;2.80;;
35909;SDS011;22004;49.120;-0.200;2023-04-25T07:25:29;19.10;;;4.15;;
35909;SDS011;22004;49.120;-0.200;2023-04-25T07:27:55;17.00;;;3.90;;
35909;SDS011;22004;49.120;-0.200;2023-04-25T07:30:21;21.25;;;4.32;;
35909;SDS011;22004;49.120;-0.200;2023-04-25T07:32:46;20.70;;;3.70;;
35909;SDS011;22004;49.120;-0.200;2023-04-25T07:35:12;23.58;;;4.25;;
35909;SDS011;22004;49.120;-0.200;2023-04-25T07:37:37;14.40;;;3.60;;
35909;SDS011;22004;49.120;-0.200;2023-04-25T07:40:03;14.32;;;3.72;;
35909;SDS011;22004;49.120;-0.200;2023-04-25T07:42:29;19.08;;;3.63;;
35909;SDS011;22004;49.120;-0.200;2023-04-25T07:44:54;17.45;;;3.47;;
35909;SDS011;22004;49.120;-0.200;2023-04-25T07:47:20;17.80;;;3.97;;
35909;SDS011;22004;49.120;-0.200;2023-04-25T07:49:45;20.20;;;3.92;;
35909;SDS011;22004;49.120;-0.200;2023-04-25T07:52:11;18.52;;;4.03;;
35909;SDS011;22004;49.120;-0.200;2023-04-25T07:54:36;15.38;;;4.40;;
35909;SDS011;22004;49.120;-0.200;2023-04-25T07:57:02;12.43;;;3.88;;
35909;SDS011;22004;49.120;-0.200;2023-04-25T07:59:27;16.15;;;3.75;;
35909;SDS011;22004;49.120;-0.200;2023-04-25T08:01:52;14.00;;;3.63;;
35909;SDS011;22004;49.120;-0.200;2023-04-25T08:04:18;14.18;;;3.95;;
35909;SDS011;22004;49.120;-0.200;2023-04-25T08:06:43;19.35;;;4.20;;
35909;SDS011;22004;49.120;-0.200;2023-04-25T08:09:09;15.40;;;3.30;;
35909;SDS011;22004;49.120;-0.200;2023-04-25T08:11:34;15.25;;;3.95;;
35909;SDS011;22004;49.120;-0.200;2023-04-25T08:14:00;15.90;;;4.25;;
35909;SDS011;22004;49.120;-0.200;2023-04-25T08:16:26;12.77;;;3.83;;
35909;SDS011;22004;49.120;-0.200;2023-04-25T08:18:52;19.40;;;4.30;;
35909;SDS011;22004;49.120;-0.200;2023-04-25T08:21:17;17.73;;;4.22;;
35909;SDS011;22004;49.120;-0.200;2023-04-25T08:23:43;22.15;;;4.30;;
35909;SDS011;22004;49.120;-0.200;2023-04-25T08:26:08;22.13;;;5.00;;
35909;SDS011;22004;49.120;-0.200;2023-04-25T08:28:33;19.73;;;3.70;;
35909;SDS011;22004;49.120;-0.200;2023-04-25T08:30:59;17.52;;;4.15;;
35909;SDS011;22004;49.120;-0.200;2023-04-25T08:33:24;17.67;;;4.70;;
35909;SDS011;22004;49.120;-0.200;2023-04-25T08:35:50;19.58;;;4.60;;
35909;SDS011;22004;49.120;-0.200;2023-04-25T08:38:16;17.20;;;4.15;;
35909;SDS011;22004;49.120;-0.200;2023-04-25T08:40:42;12.52;;;3.72;;
35909;SDS011;22004;49.120;-0.200;2023-04-25T08:43:08;19.98;;;4.35;;
35909;SDS011;22004;49.120;-0.200;2023-04-25T08:45:40;20.30;;;4.18;;
35909;SDS011;22004;49.120;-0.200;2023-04-25T08:48:13;16.55;;;4.20;;
35909;SDS011;22004;49.120;-0.200;2023-04-25T08:50:59;21.08;;;4.00;;
35909;SDS011;22004;49.120;-0.200;2023-04-25T08:53:29;17.73;;;4.20;;
35909;SDS011;22004;49.120;-0.200;2023-04-25T08:55:56;15.98;;;4.40;;
35909;SDS011;22004;49.120;-0.200;2023-04-25T08:58:23;19.02;;;4.30;;
35909;SDS011;22004;49.120;-0.200;2023-04-25T09:00:49;17.42;;;3.88;;
35909;SDS011;22004;49.120;-0.200;2023-04-25T09:03:16;27.45;;;4.07;;
35909;SDS011;22004;49.120;-0.200;2023-04-25T09:05:42;13.68;;;4.43;;
35909;SDS011;22004;49.120;-0.200;2023-04-25T09:08:08;22.35;;;4.18;;
35909;SDS011;22004;49.120;-0.200;2023-04-25T09:10:34;21.25;;;5.00;;
35909;SDS011;22004;49.120;-0.200;2023-04-25T09:13:08;21.52;;;4.38;;
35909;SDS011;22004;49.120;-0.200;2023-04-25T09:15:48;18.42;;;4.47;;
35909;SDS011;22004;49.120;-0.200;2023-04-25T09:18:26;23.50;;;4.10;;
35909;SDS011;22004;49.120;-0.200;2023-04-25T09:20:56;18.20;;;3.67;;
35909;SDS011;22004;49.120;-0.200;2023-04-25T09:23:29;22.45;;;4.18;;
35909;SDS011;22004;49.120;-0.200;2023-04-25T09:25:55;15.98;;;4.45;;
35909;SDS011;22004;49.120;-0.200;2023-04-25T09:28:23;18.25;;;4.22;;
35909;SDS011;22004;49.120;-0.200;2023-04-25T09:30:54;26.30;;;4.78;;
35909;SDS011;22004;49.120;-0.200;2023-04-25T09:33:20;20.25;;;3.92;;
35909;SDS011;22004;49.120;-0.200;2023-04-25T09:35:52;16.10;;;4.35;;
35909;SDS011;22004;49.120;-0.200;2023-04-25T09:38:20;23.27;;;4.53;;
35909;SDS011;22004;49.120;-0.200;2023-04-25T09:40:46;23.38;;;4.80;;
35909;SDS011;22004;49.120;-0.200;2023-04-25T09:43:21;13.55;;;3.90;;
35909;SDS011;22004;49.120;-0.200;2023-04-25T09:45:48;22.67;;;4.15;;
35909;SDS011;22004;49.120;-0.200;2023-04-25T09:48:21;16.75;;;3.72;;
35909;SDS011;22004;49.120;-0.200;2023-04-25T09:51:06;17.27;;;4.30;;
35909;SDS011;22004;49.120;-0.200;2023-04-25T09:53:41;20.02;;;4.47;;
35909;SDS011;22004;49.120;-0.200;2023-04-25T09:56:09;17.02;;;4.47;;
35909;SDS011;22004;49.120;-0.200;2023-04-25T09:58:36;24.80;;;4.60;;
35909;SDS011;22004;49.120;-0.200;2023-04-25T10:01:03;30.58;;;4.55;;
35909;SDS011;22004;49.120;-0.200;2023-04-25T10:03:31;22.63;;;4.25;;
35909;SDS011;22004;49.120;-0.200;2023-04-25T10:06:00;11.80;;;3.75;;
35909;SDS011;22004;49.120;-0.200;2023-04-25T10:08:28;20.35;;;4.93;;
35909;SDS011;22004;49.120;-0.200;2023-04-25T10:10:58;16.42;;;4.20;;
35909;SDS011;22004;49.120;-0.200;2023-04-25T10:13:26;16.73;;;4.20;;
35909;SDS011;22004;49.120;-0.200;2023-04-25T10:15:53;23.00;;;4.25;;
35909;SDS011;22004;49.120;-0.200;2023-04-25T10:18:19;21.23;;;4.25;;
35909;SDS011;22004;49.120;-0.200;2023-04-25T10:20:45;21.70;;;4.53;;
35909;SDS011;22004;49.120;-0.200;2023-04-25T10:23:13;26.55;;;5.25;;
35909;SDS011;22004;49.120;-0.200;2023-04-25T10:25:40;18.27;;;3.97;;
35909;SDS011;22004;49.120;-0.200;2023-04-25T10:28:06;19.83;;;4.63;;
35909;SDS011;22004;49.120;-0.200;2023-04-25T10:30:32;22.27;;;4.43;;
35909;SDS011;22004;49.120;-0.200;2023-04-25T10:32:58;20.77;;;4.75;;
35909;SDS011;22004;49.120;-0.200;2023-04-25T10:35:26;17.88;;;3.75;;
35909;SDS011;22004;49.120;-0.200;2023-04-25T10:38:05;17.75;;;4.10;;
35909;SDS011;22004;49.120;-0.200;2023-04-25T10:40:34;24.55;;;4.50;;
35909;SDS011;22004;49.120;-0.200;2023-04-25T10:43:33;20.48;;;3.83;;
35909;SDS011;22004;49.120;-0.200;2023-04-25T10:45:51;29.27;;;5.75;;
35909;SDS011;22004;49.120;-0.200;2023-04-25T10:48:26;18.30;;;4.13;;
35909;SDS011;22004;49.120;-0.200;2023-04-25T10:51:07;23.67;;;4.53;;
35909;SDS011;22004;49.120;-0.200;2023-04-25T10:53:33;15.10;;;4.40;;
35909;SDS011;22004;49.120;-0.200;2023-04-25T10:55:59;22.10;;;4.47;;
35909;SDS011;22004;49.120;-0.200;2023-04-25T10:58:24;13.45;;;4.00;;
35909;SDS011;22004;49.120;-0.200;2023-04-25T11:00:50;19.35;;;3.90;;
35909;SDS011;22004;49.120;-0.200;2023-04-25T11:03:16;22.52;;;5.07;;
35909;SDS011;22004;49.120;-0.200;2023-04-25T11:05:41;18.02;;;3.38;;
35909;SDS011;22004;49.120;-0.200;2023-04-25T11:08:13;16.50;;;3.92;;
35909;SDS011;22004;49.120;-0.200;2023-04-25T11:10:42;16.88;;;4.00;;
35909;SDS011;22004;49.120;-0.200;2023-04-25T11:13:07;18.90;;;4.38;;
35909;SDS011;22004;49.120;-0.200;2023-04-25T11:15:33;13.85;;;3.72;;
35909;SDS011;22004;49.120;-0.200;2023-04-25T11:17:58;19.00;;;3.80;;
35909;SDS011;22004;49.120;-0.200;2023-04-25T11:20:25;17.33;;;4.18;;
35909;SDS011;22004;49.120;-0.200;2023-04-25T11:22:52;17.48;;;4.40;;
35909;SDS011;22004;49.120;-0.200;2023-04-25T11:25:17;14.98;;;3.92;;
35909;SDS011;22004;49.120;-0.200;2023-04-25T11:27:52;14.45;;;3.67;;
35909;SDS011;22004;49.120;-0.200;2023-04-25T11:30:20;19.80;;;4.32;;
35909;SDS011;22004;49.120;-0.200;2023-04-25T11:32:46;13.35;;;3.53;;
35909;SDS011;22004;49.120;-0.200;2023-04-25T11:35:12;21.27;;;4.30;;
35909;SDS011;22004;49.120;-0.200;2023-04-25T11:37:40;18.15;;;4.20;;
35909;SDS011;22004;49.120;-0.200;2023-04-25T11:40:07;20.40;;;4.50;;
35909;SDS011;22004;49.120;-0.200;2023-04-25T11:42:36;18.27;;;3.75;;
35909;SDS011;22004;49.120;-0.200;2023-04-25T11:45:01;21.20;;;4.05;;
35909;SDS011;22004;49.120;-0.200;2023-04-25T11:47:29;20.42;;;4.55;;
35909;SDS011;22004;49.120;-0.200;2023-04-25T11:49:58;13.20;;;3.72;;
35909;SDS011;22004;49.120;-0.200;2023-04-25T11:52:25;18.48;;;5.20;;
35909;SDS011;22004;49.120;-0.200;2023-04-25T11:55:00;25.83;;;5.85;;
35909;SDS011;22004;49.120;-0.200;2023-04-25T11:57:26;16.00;;;4.00;;
35909;SDS011;22004;49.120;-0.200;2023-04-25T11:59:51;18.83;;;4.22;;
35909;SDS011;22004;49.120;-0.200;2023-04-25T12:02:25;12.93;;;3.80;;
35909;SDS011;22004;49.120;-0.200;2023-04-25T12:04:51;15.40;;;3.88;;
35909;SDS011;22004;49.120;-0.200;2023-04-25T12:07:16;15.35;;;3.75;;
35909;SDS011;22004;49.120;-0.200;2023-04-25T12:09:51;19.95;;;3.58;;
35909;SDS011;22004;49.120;-0.200;2023-04-25T12:12:16;15.50;;;4.25;;
35909;SDS011;22004;49.120;-0.200;2023-04-25T12:14:45;15.00;;;3.92;;
35909;SDS011;22004;49.120;-0.200;2023-04-25T12:17:13;17.80;;;4.50;;
35909;SDS011;22004;49.120;-0.200;2023-04-25T12:19:38;32.33;;;4.80;;
35909;SDS011;22004;49.120;-0.200;2023-04-25T12:22:21;13.05;;;3.47;;
35909;SDS011;22004;49.120;-0.200;2023-04-25T12:24:48;14.95;;;3.85;;
35909;SDS011;22004;49.120;-0.200;2023-04-25T12:27:15;13.60;;;4.05;;
35909;SDS011;22004;49.120;-0.200;2023-04-25T12:29:49;15.50;;;3.75;;
35909;SDS011;22004;49.120;-0.200;2023-04-25T12:32:16;16.63;;;3.90;;
35909;SDS011;22004;49.120;-0.200;2023-04-25T12:34:42;22.83;;;4.18;;
35909;SDS011;22004;49.120;-0.200;2023-04-25T12:37:08;20.98;;;4.15;;
35909;SDS011;22004;49.120;-0.200;2023-04-25T12:39:34;13.43;;;3.67;;
35909;SDS011;22004;49.120;-0.200;2023-04-25T12:41:59;18.67;;;3.55;;
35909;SDS011;22004;49.120;-0.200;2023-04-25T12:44:25;17.77;;;3.40;;
35909;SDS011;22004;49.120;-0.200;2023-04-25T12:46:51;16.70;;;3.90;;
35909;SDS011;22004;49.120;-0.200;2023-04-25T12:49:17;17.52;;;4.03;;
35909;SDS011;22004;49.120;-0.200;2023-04-25T12:51:42;15.00;;;3.53;;
35909;SDS011;22004;49.120;-0.200;2023-04-25T12:54:08;16.63;;;3.60;;
35909;SDS011;22004;49.120;-0.200;2023-04-25T12:56:34;15.75;;;3.92;;
35909;SDS011;22004;49.120;-0.200;2023-04-25T12:59:00;19.77;;;3.22;;
35909;SDS011;22004;49.120;-0.200;2023-04-25T13:01:27;18.00;;;3.40;;
35909;SDS011;22004;49.120;-0.200;2023-04-25T13:03:53;11.73;;;3.33;;
35909;SDS011;22004;49.120;-0.200;2023-04-25T13:06:19;24.48;;;3.97;;
35909;SDS011;22004;49.120;-0.200;2023-04-25T13:08:45;13.38;;;3.35;;
35909;SDS011;22004;49.120;-0.200;2023-04-25T13:11:11;18.92;;;4.00;;
35909;SDS011;22004;49.120;-0.200;2023-04-25T13:13:37;24.00;;;4.47;;
35909;SDS011;22004;49.120;-0.200;2023-04-25T13:16:02;13.38;;;3.70;;
35909;SDS011;22004;49.120;-0.200;2023-04-25T13:18:29;28.05;;;4.13;;
35909;SDS011;22004;49.120;-0.200;2023-04-25T13:20:55;12.85;;;3.30;;
35909;SDS011;22004;49.120;-0.200;2023-04-25T13:23:20;19.23;;;3.90;;
35909;SDS011;22004;49.120;-0.200;2023-04-25T13:25:46;13.82;;;3.53;;
35909;SDS011;22004;49.120;-0.200;2023-04-25T13:28:12;12.18;;;2.95;;
35909;SDS011;22004;49.120;-0.200;2023-04-25T13:30:37;24.67;;;3.50;;
35909;SDS011;22004;49.120;-0.200;2023-04-25T13:33:03;21.40;;;3.47;;
35909;SDS011;22004;49.120;-0.200;2023-04-25T13:35:29;12.57;;;3.33;;
35909;SDS011;22004;49.120;-0.200;2023-04-25T13:37:56;17.88;;;4.47;;
35909;SDS011;22004;49.120;-0.200;2023-04-25T13:40:21;10.32;;;2.97;;
35909;SDS011;22004;49.120;-0.200;2023-04-25T13:42:47;12.85;;;3.95;;
35909;SDS011;22004;49.120;-0.200;2023-04-25T13:45:12;17.40;;;3.35;;
35909;SDS011;22004;49.120;-0.200;2023-04-25T13:47:38;8.23;;;3.30;;
35909;SDS011;22004;49.120;-0.200;2023-04-25T13:50:03;18.13;;;3.53;;
35909;SDS011;22004;49.120;-0.200;2023-04-25T13:52:30;16.90;;;2.88;;
35909;SDS011;22004;49.120;-0.200;2023-04-25T13:54:56;17.65;;;3.35;;
35909;SDS011;22004;49.120;-0.200;2023-04-25T13:57:22;13.57;;;3.30;;
35909;SDS011;22004;49.120;-0.200;2023-04-25T13:59:47;11.18;;;3.13;;
35909;SDS011;22004;49.120;-0.200;2023-04-25T14:02:13;14.00;;;3.60;;
35909;SDS011;22004;49.120;-0.200;2023-04-25T14:04:38;11.45;;;3.47;;
35909;SDS011;22004;49.120;-0.200;2023-04-25T14:07:04;11.10;;;3.50;;
35909;SDS011;22004;49.120;-0.200;2023-04-25T14:09:29;11.60;;;3.20;;
35909;SDS011;22004;49.120;-0.200;2023-04-25T14:11:55;14.52;;;3.10;;
35909;SDS011;22004;49.120;-0.200;2023-04-25T14:14:21;12.52;;;3.15;;
35909;SDS011;22004;49.120;-0.200;2023-04-25T14:16:47;12.07;;;2.90;;
35909;SDS011;22004;49.120;-0.200;2023-04-25T14:19:13;15.82;;;3.72;;